sensor_id;sensor_type;location;lat;lon;timestamp;pressure;altitude;pressure_sealevel;temperature;humidity
50734;BME280;36701;51.798;19.474;2022-11-04T00:02:03;98398.66;;;9.39;100.00
50734;BME280;36701;51.798;19.474;2022-11-04T00:04:30;98360.16;;;9.28;100.00
50734;BME280;36701;51.798;19.474;2022-11-04T00:06:56;98366.47;;;9.12;100.00
50734;BME280;36701;51.798;19.474;2022-11-04T00:09:27;98394.50;;;9.21;100.00
50734;BME280;36701;51.798;19.474;2022-11-04T00:11:54;98388.28;;;9.20;100.00
50734;BME280;36701;51.798;19.474;2022-11-04T00:14:39;98381.56;;;9.18;100.00
50734;BME280;36701;51.798;19.474;2022-11-04T00:17:09;98329.94;;;8.78;100.00
50734;BME280;36701;51.798;19.474;2022-11-04T00:19:49;98378.59;;;9.52;100.00
50734;BME280;36701;51.798;19.474;2022-11-04T00:22:35;98355.09;;;8.99;100.00
50734;BME280;36701;51.798;19.474;2022-11-04T00:25:21;98332.56;;;9.00;100.00
50734;BME280;36701;51.798;19.474;2022-11-04T00:28:14;98376.72;;;9.15;100.00
50734;BME280;36701;51.798;19.474;2022-11-04T00:31:01;98328.38;;;9.15;100.00
50734;BME280;36701;51.798;19.474;2022-11-04T00:33:49;98329.91;;;9.05;100.00
50734;BME280;36701;51.798;19.474;2022-11-04T00:36:16;98322.47;;;9.18;100.00
50734;BME280;36701;51.798;19.474;2022-11-04T00:38:42;98356.25;;;9.08;100.00
50734;BME280;36701;51.798;19.474;2022-11-04T00:41:09;98349.50;;;9.38;100.00
50734;BME280;36701;51.798;19.474;2022-11-04T00:44:00;98319.97;;;9.06;100.00
50734;BME280;36701;51.798;19.474;2022-11-04T00:46:29;98351.78;;;9.19;100.00
50734;BME280;36701;51.798;19.474;2022-11-04T00:48:56;98296.19;;;9.25;100.00
50734;BME280;36701;51.798;19.474;2022-11-04T00:51:23;98339.94;;;9.63;100.00
50734;BME280;36701;51.798;19.474;2022-11-04T00:53:51;98299.31;;;9.06;100.00
50734;BME280;36701;51.798;19.474;2022-11-04T00:56:18;98333.13;;;9.45;100.00
50734;BME280;36701;51.798;19.474;2022-11-04T00:58:44;98289.81;;;8.94;100.00
50734;BME280;36701;51.798;19.474;2022-11-04T01:01:13;98321.50;;;9.34;100.00
50734;BME280;36701;51.798;19.474;2022-11-04T01:03:47;98329.03;;;9.32;100.00
50734;BME280;36701;51.798;19.474;2022-11-04T01:06:15;98276.78;;;8.75;100.00
50734;BME280;36701;51.798;19.474;2022-11-04T01:08:41;98314.00;;;9.36;100.00
50734;BME280;36701;51.798;19.474;2022-11-04T01:11:08;98270.97;;;9.26;100.00
50734;BME280;36701;51.798;19.474;2022-11-04T01:13:36;98306.50;;;9.38;100.00
50734;BME280;36701;51.798;19.474;2022-11-04T01:16:04;98292.81;;;9.02;100.00
50734;BME280;36701;51.798;19.474;2022-11-04T01:18:31;98300.25;;;9.27;100.00
50734;BME280;36701;51.798;19.474;2022-11-04T01:21:05;98294.88;;;9.27;100.00
50734;BME280;36701;51.798;19.474;2022-11-04T01:23:34;98301.78;;;9.18;100.00
50734;BME280;36701;51.798;19.474;2022-11-04T01:26:04;98268.25;;;9.21;100.00
50734;BME280;36701;51.798;19.474;2022-11-04T01:28:31;98295.28;;;9.52;100.00
50734;BME280;36701;51.798;19.474;2022-11-04T01:30:58;98259.59;;;9.14;100.00
50734;BME280;36701;51.798;19.474;2022-11-04T01:33:31;98264.34;;;9.01;100.00
50734;BME280;36701;51.798;19.474;2022-11-04T01:36:01;98262.72;;;9.00;100.00
50734;BME280;36701;51.798;19.474;2022-11-04T01:38:27;98301.19;;;9.54;100.00
50734;BME280;36701;51.798;19.474;2022-11-04T01:40:54;98283.66;;;9.41;100.00
50734;BME280;36701;51.798;19.474;2022-11-04T01:43:22;98246.38;;;8.69;100.00
50734;BME280;36701;51.798;19.474;2022-11-04T01:45:58;98245.00;;;8.99;100.00
50734;BME280;36701;51.798;19.474;2022-11-04T01:48:30;98285.53;;;9.35;100.00
50734;BME280;36701;51.798;19.474;2022-11-04T01:50:58;98281.72;;;9.31;100.00
50734;BME280;36701;51.798;19.474;2022-11-04T01:53:31;98279.28;;;9.24;100.00
50734;BME280;36701;51.798;19.474;2022-11-04T01:56:01;98274.66;;;9.15;100.00
50734;BME280;36701;51.798;19.474;2022-11-04T01:58:32;98224.06;;;9.01;100.00
50734;BME280;36701;51.798;19.474;2022-11-04T02:01:00;98222.47;;;9.00;100.00
50734;BME280;36701;51.798;19.474;2022-11-04T02:03:38;98262.87;;;9.21;100.00
50734;BME280;36701;51.798;19.474;2022-11-04T02:06:06;98210.63;;;9.01;100.00
50734;BME280;36701;51.798;19.474;2022-11-04T02:08:34;98258.03;;;9.18;100.00
50734;BME280;36701;51.798;19.474;2022-11-04T02:11:02;98251.91;;;9.27;100.00
50734;BME280;36701;51.798;19.474;2022-11-04T02:13:30;98211.00;;;9.15;100.00
50734;BME280;36701;51.798;19.474;2022-11-04T02:19:19;98248.31;;;9.12;100.00
50734;BME280;36701;51.798;19.474;2022-11-04T02:24:52;98248.34;;;9.22;100.00
50734;BME280;36701;51.798;19.474;2022-11-04T02:30:16;98201.41;;;8.87;100.00
50734;BME280;36701;51.798;19.474;2022-11-04T02:38:09;98234.06;;;9.59;100.00
50734;BME280;36701;51.798;19.474;2022-11-04T02:43:24;98226.81;;;9.70;100.00
50734;BME280;36701;51.798;19.474;2022-11-04T02:46:14;98215.75;;;9.56;100.00
50734;BME280;36701;51.798;19.474;2022-11-04T02:54:02;98182.91;;;9.38;100.00
50734;BME280;36701;51.798;19.474;2022-11-04T02:56:35;98211.38;;;9.39;100.00
50734;BME280;36701;51.798;19.474;2022-11-04T02:59:10;98200.72;;;9.65;100.00
50734;BME280;36701;51.798;19.474;2022-11-04T03:01:40;98198.03;;;9.60;100.00
50734;BME280;36701;51.798;19.474;2022-11-04T03:04:13;98162.56;;;9.58;100.00
50734;BME280;36701;51.798;19.474;2022-11-04T03:06:42;98146.41;;;9.58;100.00
50734;BME280;36701;51.798;19.474;2022-11-04T03:09:12;98168.00;;;9.89;100.00
50734;BME280;36701;51.798;19.474;2022-11-04T03:11:43;98123.16;;;9.11;100.00
50734;BME280;36701;51.798;19.474;2022-11-04T03:14:16;98173.03;;;9.59;100.00
50734;BME280;36701;51.798;19.474;2022-11-04T03:16:48;98141.63;;;9.70;100.00
50734;BME280;36701;51.798;19.474;2022-11-04T03:19:18;98176.53;;;9.65;100.00
50734;BME280;36701;51.798;19.474;2022-11-04T03:21:59;98177.63;;;9.69;100.00
50734;BME280;36701;51.798;19.474;2022-11-04T03:24:28;98143.06;;;9.20;100.00
50734;BME280;36701;51.798;19.474;2022-11-04T03:27:00;98157.69;;;9.55;100.00
50734;BME280;36701;51.798;19.474;2022-11-04T03:29:34;98160.91;;;9.52;100.00
50734;BME280;36701;51.798;19.474;2022-11-04T03:34:36;98163.34;;;9.53;100.00
50734;BME280;36701;51.798;19.474;2022-11-04T03:37:03;98127.53;;;9.27;100.00
50734;BME280;36701;51.798;19.474;2022-11-04T03:39:30;98170.09;;;9.71;100.00
50734;BME280;36701;51.798;19.474;2022-11-04T03:41:59;98160.62;;;9.48;100.00
50734;BME280;36701;51.798;19.474;2022-11-04T03:44:28;98118.87;;;9.20;100.00
50734;BME280;36701;51.798;19.474;2022-11-04T03:46:55;98151.78;;;9.53;100.00
50734;BME280;36701;51.798;19.474;2022-11-04T03:49:22;98112.53;;;9.47;100.00
50734;BME280;36701;51.798;19.474;2022-11-04T03:51:50;98157.13;;;9.42;100.00
50734;BME280;36701;51.798;19.474;2022-11-04T03:54:17;98119.84;;;8.98;100.00
50734;BME280;36701;51.798;19.474;2022-11-04T04:00:17;98169.50;;;9.43;100.00
50734;BME280;36701;51.798;19.474;2022-11-04T04:05:11;98145.16;;;9.07;100.00
50734;BME280;36701;51.798;19.474;2022-11-04T04:10:39;98117.16;;;8.98;100.00
50734;BME280;36701;51.798;19.474;2022-11-04T04:13:15;98119.22;;;9.29;100.00
50734;BME280;36701;51.798;19.474;2022-11-04T04:16:05;98155.47;;;9.36;100.00
50734;BME280;36701;51.798;19.474;2022-11-04T04:18:47;98111.44;;;9.42;100.00
50734;BME280;36701;51.798;19.474;2022-11-04T04:21:20;98131.81;;;9.33;100.00
50734;BME280;36701;51.798;19.474;2022-11-04T04:23:49;98121.06;;;9.23;100.00
50734;BME280;36701;51.798;19.474;2022-11-04T04:26:36;98149.13;;;9.58;100.00
50734;BME280;36701;51.798;19.474;2022-11-04T04:29:25;98135.53;;;9.22;100.00
50734;BME280;36701;51.798;19.474;2022-11-04T04:31:53;98134.09;;;9.67;100.00
50734;BME280;36701;51.798;19.474;2022-11-04T04:34:32;98096.88;;;9.18;100.00
50734;BME280;36701;51.798;19.474;2022-11-04T04:37:02;98143.47;;;9.64;100.00
50734;BME280;36701;51.798;19.474;2022-11-04T04:39:44;98103.81;;;9.14;100.00
50734;BME280;36701;51.798;19.474;2022-11-04T04:42:32;98109.28;;;9.34;100.00
50734;BME280;36701;51.798;19.474;2022-11-04T04:45:30;98129.22;;;9.59;100.00
50734;BME280;36701;51.798;19.474;2022-11-04T04:47:58;98128.06;;;9.34;100.00
50734;BME280;36701;51.798;19.474;2022-11-04T04:50:27;98099.56;;;9.23;100.00
50734;BME280;36701;51.798;19.474;2022-11-04T04:52:56;98094.75;;;9.30;100.00
50734;BME280;36701;51.798;19.474;2022-11-04T04:55:24;98095.22;;;9.12;100.00
50734;BME280;36701;51.798;19.474;2022-11-04T04:57:51;98094.25;;;9.38;100.00
50734;BME280;36701;51.798;19.474;2022-11-04T05:00:19;98136.72;;;9.57;100.00
50734;BME280;36701;51.798;19.474;2022-11-04T05:02:47;98132.47;;;9.66;100.00
50734;BME280;36701;51.798;19.474;2022-11-04T05:05:14;98093.22;;;9.60;100.00
50734;BME280;36701;51.798;19.474;2022-11-04T05:07:40;98082.88;;;9.16;100.00
50734;BME280;36701;51.798;19.474;2022-11-04T05:10:09;98142.63;;;9.43;100.00
50734;BME280;36701;51.798;19.474;2022-11-04T05:12:37;98138.88;;;9.55;100.00
50734;BME280;36701;51.798;19.474;2022-11-04T05:15:26;98084.00;;;9.30;100.00
50734;BME280;36701;51.798;19.474;2022-11-04T05:17:54;98123.38;;;9.88;100.00
50734;BME280;36701;51.798;19.474;2022-11-04T05:20:21;98114.50;;;9.97;100.00
50734;BME280;36701;51.798;19.474;2022-11-04T05:22:48;98102.94;;;10.07;100.00
50734;BME280;36701;51.798;19.474;2022-11-04T05:25:14;98106.41;;;9.82;100.00
50734;BME280;36701;51.798;19.474;2022-11-04T05:27:41;98113.16;;;10.00;100.00
50734;BME280;36701;51.798;19.474;2022-11-04T05:30:08;98073.81;;;9.27;100.00
50734;BME280;36701;51.798;19.474;2022-11-04T05:32:34;98110.75;;;10.09;100.00
50734;BME280;36701;51.798;19.474;2022-11-04T05:35:01;98006.28;;;8.98;100.00
50734;BME280;36701;51.798;19.474;2022-11-04T05:37:28;98100.75;;;9.58;100.00
50734;BME280;36701;51.798;19.474;2022-11-04T05:39:54;98071.47;;;9.72;100.00
50734;BME280;36701;51.798;19.474;2022-11-04T05:42:20;98110.97;;;9.71;100.00
50734;BME280;36701;51.798;19.474;2022-11-04T05:44:47;98106.62;;;9.55;100.00
50734;BME280;36701;51.798;19.474;2022-11-04T05:47:13;98099.59;;;9.33;100.00
50734;BME280;36701;51.798;19.474;2022-11-04T05:49:40;98101.25;;;9.55;100.00
50734;BME280;36701;51.798;19.474;2022-11-04T05:52:06;98067.34;;;9.33;100.00
50734;BME280;36701;51.798;19.474;2022-11-04T05:54:33;98110.44;;;9.59;100.00
50734;BME280;36701;51.798;19.474;2022-11-04T05:56:59;98110.69;;;9.62;100.00
50734;BME280;36701;51.798;19.474;2022-11-04T05:59:26;98109.06;;;9.56;100.00
50734;BME280;36701;51.798;19.474;2022-11-04T06:01:52;98074.81;;;9.11;100.00
50734;BME280;36701;51.798;19.474;2022-11-04T06:04:19;98102.59;;;9.52;100.00
50734;BME280;36701;51.798;19.474;2022-11-04T06:06:45;98105.00;;;9.54;100.00
50734;BME280;36701;51.798;19.474;2022-11-04T06:09:11;98109.28;;;9.39;100.00
50734;BME280;36701;51.798;19.474;2022-11-04T06:11:38;98109.34;;;9.60;100.00
50734;BME280;36701;51.798;19.474;2022-11-04T06:14:04;98078.66;;;9.40;100.00
50734;BME280;36701;51.798;19.474;2022-11-04T06:16:31;98116.28;;;9.51;100.00
50734;BME280;36701;51.798;19.474;2022-11-04T06:18:57;98080.28;;;9.52;100.00
50734;BME280;36701;51.798;19.474;2022-11-04T06:21:27;98069.81;;;9.55;100.00
50734;BME280;36701;51.798;19.474;2022-11-04T06:23:54;98110.37;;;9.54;100.00
50734;BME280;36701;51.798;19.474;2022-11-04T06:26:25;98073.03;;;9.47;100.00
50734;BME280;36701;51.798;19.474;2022-11-04T06:28:52;98112.03;;;9.65;100.00
50734;BME280;36701;51.798;19.474;2022-11-04T06:31:19;98073.28;;;9.40;100.00
50734;BME280;36701;51.798;19.474;2022-11-04T06:33:46;98123.88;;;9.59;100.00
50734;BME280;36701;51.798;19.474;2022-11-04T06:36:14;98090.47;;;9.34;100.00
50734;BME280;36701;51.798;19.474;2022-11-04T06:38:41;98104.47;;;9.41;100.00
50734;BME280;36701;51.798;19.474;2022-11-04T06:41:11;98124.38;;;9.56;100.00
50734;BME280;36701;51.798;19.474;2022-11-04T06:43:37;98116.88;;;9.68;100.00
50734;BME280;36701;51.798;19.474;2022-11-04T06:46:04;98117.41;;;9.60;100.00
50734;BME280;36701;51.798;19.474;2022-11-04T06:48:31;98115.75;;;9.43;100.00
50734;BME280;36701;51.798;19.474;2022-11-04T06:50:59;98107.75;;;9.79;100.00
50734;BME280;36701;51.798;19.474;2022-11-04T06:53:26;98103.44;;;9.63;100.00
50734;BME280;36701;51.798;19.474;2022-11-04T06:56:00;98118.22;;;9.81;100.00
50734;BME280;36701;51.798;19.474;2022-11-04T06:58:27;98074.38;;;9.55;100.00
50734;BME280;36701;51.798;19.474;2022-11-04T07:00:53;98085.12;;;9.44;100.00
50734;BME280;36701;51.798;19.474;2022-11-04T07:03:20;98071.13;;;9.42;100.00
50734;BME280;36701;51.798;19.474;2022-11-04T07:05:46;98081.41;;;9.66;100.00
50734;BME280;36701;51.798;19.474;2022-11-04T07:08:13;98095.94;;;10.27;100.00
50734;BME280;36701;51.798;19.474;2022-11-04T07:10:39;98094.84;;;9.92;100.00
50734;BME280;36701;51.798;19.474;2022-11-04T07:13:06;98051.56;;;9.93;100.00
50734;BME280;36701;51.798;19.474;2022-11-04T07:15:32;98097.56;;;10.12;100.00
50734;BME280;36701;51.798;19.474;2022-11-04T07:17:59;98085.97;;;10.27;100.00
50734;BME280;36701;51.798;19.474;2022-11-04T07:20:25;98100.25;;;10.12;100.00
50734;BME280;36701;51.798;19.474;2022-11-04T07:22:54;98095.13;;;10.06;100.00
50734;BME280;36701;51.798;19.474;2022-11-04T07:25:20;98100.25;;;10.07;100.00
50734;BME280;36701;51.798;19.474;2022-11-04T07:27:47;98067.94;;;10.23;100.00
50734;BME280;36701;51.798;19.474;2022-11-04T07:30:13;98090.28;;;9.92;100.00
50734;BME280;36701;51.798;19.474;2022-11-04T07:32:40;98080.87;;;10.10;100.00
50734;BME280;36701;51.798;19.474;2022-11-04T07:35:06;98093.22;;;10.32;100.00
50734;BME280;36701;51.798;19.474;2022-11-04T07:37:33;98085.69;;;10.29;100.00
50734;BME280;36701;51.798;19.474;2022-11-04T07:39:59;98058.81;;;9.82;100.00
50734;BME280;36701;51.798;19.474;2022-11-04T07:42:26;98049.13;;;9.97;100.00
50734;BME280;36701;51.798;19.474;2022-11-04T07:44:52;98059.91;;;10.07;100.00
50734;BME280;36701;51.798;19.474;2022-11-04T07:47:19;98069.03;;;10.27;100.00
50734;BME280;36701;51.798;19.474;2022-11-04T07:49:45;98070.09;;;10.21;100.00
50734;BME280;36701;51.798;19.474;2022-11-04T07:52:12;98031.41;;;10.37;100.00
50734;BME280;36701;51.798;19.474;2022-11-04T07:54:38;98053.97;;;10.41;100.00
50734;BME280;36701;51.798;19.474;2022-11-04T07:57:05;98054.78;;;10.16;100.00
50734;BME280;36701;51.798;19.474;2022-11-04T07:59:31;98066.38;;;10.37;100.00
50734;BME280;36701;51.798;19.474;2022-11-04T08:01:58;98021.72;;;10.10;100.00
50734;BME280;36701;51.798;19.474;2022-11-04T08:04:25;98050.22;;;10.22;100.00
50734;BME280;36701;51.798;19.474;2022-11-04T08:06:52;98002.88;;;10.15;100.00
50734;BME280;36701;51.798;19.474;2022-11-04T08:09:18;97992.62;;;10.33;100.00
50734;BME280;36701;51.798;19.474;2022-11-04T08:11:45;98037.69;;;10.82;100.00
50734;BME280;36701;51.798;19.474;2022-11-04T08:14:11;98009.31;;;10.30;100.00
50734;BME280;36701;51.798;19.474;2022-11-04T08:16:37;98052.34;;;10.40;100.00
50734;BME280;36701;51.798;19.474;2022-11-04T08:19:04;98032.97;;;10.23;100.00
50734;BME280;36701;51.798;19.474;2022-11-04T08:21:32;98043.75;;;10.38;100.00
50734;BME280;36701;51.798;19.474;2022-11-04T08:23:58;98030.81;;;10.40;100.00
50734;BME280;36701;51.798;19.474;2022-11-04T08:26:26;98008.38;;;10.76;100.00
50734;BME280;36701;51.798;19.474;2022-11-04T08:28:53;97988.25;;;10.58;100.00
50734;BME280;36701;51.798;19.474;2022-11-04T08:31:22;98029.97;;;11.20;100.00
50734;BME280;36701;51.798;19.474;2022-11-04T08:33:51;97999.53;;;10.65;100.00
50734;BME280;36701;51.798;19.474;2022-11-04T08:36:30;98002.84;;;10.36;100.00
50734;BME280;36701;51.798;19.474;2022-11-04T08:38:57;98033.34;;;10.86;100.00
50734;BME280;36701;51.798;19.474;2022-11-04T08:41:26;98035.16;;;11.06;100.00
50734;BME280;36701;51.798;19.474;2022-11-04T08:43:54;98023.88;;;11.04;100.00
50734;BME280;36701;51.798;19.474;2022-11-04T08:46:21;98021.50;;;10.93;100.00
50734;BME280;36701;51.798;19.474;2022-11-04T08:48:48;98003.66;;;11.02;100.00
50734;BME280;36701;51.798;19.474;2022-11-04T08:51:19;98033.41;;;11.31;100.00
50734;BME280;36701;51.798;19.474;2022-11-04T08:53:46;98026.19;;;11.26;100.00
50734;BME280;36701;51.798;19.474;2022-11-04T08:56:16;98015.56;;;10.96;100.00
50734;BME280;36701;51.798;19.474;2022-11-04T08:58:43;97993.34;;;10.59;100.00
50734;BME280;36701;51.798;19.474;2022-11-04T09:01:11;98023.97;;;10.84;100.00
50734;BME280;36701;51.798;19.474;2022-11-04T09:03:38;97980.22;;;10.32;100.00
50734;BME280;36701;51.798;19.474;2022-11-04T09:06:07;98045.81;;;10.77;100.00
50734;BME280;36701;51.798;19.474;2022-11-04T09:08:34;98046.22;;;11.05;100.00
50734;BME280;36701;51.798;19.474;2022-11-04T09:11:05;98028.16;;;11.11;100.00
50734;BME280;36701;51.798;19.474;2022-11-04T09:13:39;98007.31;;;11.21;100.00
50734;BME280;36701;51.798;19.474;2022-11-04T09:16:08;98044.19;;;11.31;100.00
50734;BME280;36701;51.798;19.474;2022-11-04T09:18:35;98044.56;;;11.14;100.00
50734;BME280;36701;51.798;19.474;2022-11-04T09:21:03;98037.88;;;11.06;100.00
50734;BME280;36701;51.798;19.474;2022-11-04T09:23:30;98042.56;;;10.75;100.00
50734;BME280;36701;51.798;19.474;2022-11-04T09:26:02;98024.84;;;10.59;100.00
50734;BME280;36701;51.798;19.474;2022-11-04T09:28:28;98039.63;;;10.71;100.00
50734;BME280;36701;51.798;19.474;2022-11-04T09:30:55;98001.84;;;9.91;100.00
50734;BME280;36701;51.798;19.474;2022-11-04T09:33:22;98037.81;;;10.26;100.00
50734;BME280;36701;51.798;19.474;2022-11-04T09:35:55;98024.22;;;10.87;100.00
50734;BME280;36701;51.798;19.474;2022-11-04T09:38:26;98012.91;;;10.85;100.00
50734;BME280;36701;51.798;19.474;2022-11-04T09:40:55;98018.97;;;11.12;100.00
50734;BME280;36701;51.798;19.474;2022-11-04T09:43:40;97997.66;;;11.15;100.00
50734;BME280;36701;51.798;19.474;2022-11-04T09:46:14;97977.91;;;10.85;100.00
50734;BME280;36701;51.798;19.474;2022-11-04T09:48:52;97997.84;;;10.84;100.00
50734;BME280;36701;51.798;19.474;2022-11-04T09:51:23;97986.50;;;10.87;100.00
50734;BME280;36701;51.798;19.474;2022-11-04T09:53:57;97999.47;;;10.75;100.00
50734;BME280;36701;51.798;19.474;2022-11-04T09:56:34;98007.34;;;10.66;100.00
50734;BME280;36701;51.798;19.474;2022-11-04T09:59:04;97968.25;;;10.79;100.00
50734;BME280;36701;51.798;19.474;2022-11-04T10:01:49;97985.72;;;10.87;100.00
50734;BME280;36701;51.798;19.474;2022-11-04T10:04:51;97988.22;;;10.68;100.00
50734;BME280;36701;51.798;19.474;2022-11-04T10:13:02;97997.66;;;11.55;100.00
50734;BME280;36701;51.798;19.474;2022-11-04T10:15:46;97956.13;;;10.77;100.00
50734;BME280;36701;51.798;19.474;2022-11-04T10:24:06;97999.16;;;11.37;100.00
50734;BME280;36701;51.798;19.474;2022-11-04T10:26:44;97948.78;;;11.32;100.00
50734;BME280;36701;51.798;19.474;2022-11-04T10:29:25;97997.34;;;11.67;100.00
50734;BME280;36701;51.798;19.474;2022-11-04T10:31:53;97999.94;;;11.37;100.00
50734;BME280;36701;51.798;19.474;2022-11-04T10:34:36;98001.03;;;11.76;100.00
50734;BME280;36701;51.798;19.474;2022-11-04T10:37:10;97987.06;;;11.69;100.00
50734;BME280;36701;51.798;19.474;2022-11-04T10:39:45;97999.31;;;11.85;100.00
50734;BME280;36701;51.798;19.474;2022-11-04T10:42:16;97994.03;;;11.75;100.00
50734;BME280;36701;51.798;19.474;2022-11-04T10:44:44;97973.31;;;11.31;100.00
50734;BME280;36701;51.798;19.474;2022-11-04T10:52:43;97984.19;;;11.55;100.00
50734;BME280;36701;51.798;19.474;2022-11-04T10:55:38;97991.22;;;11.90;100.00
50734;BME280;36701;51.798;19.474;2022-11-04T10:58:33;97980.06;;;12.26;100.00
50734;BME280;36701;51.798;19.474;2022-11-04T11:01:25;97972.47;;;12.33;100.00
50734;BME280;36701;51.798;19.474;2022-11-04T11:03:58;97968.78;;;12.24;100.00
50734;BME280;36701;51.798;19.474;2022-11-04T11:06:34;97968.00;;;12.43;100.00
50734;BME280;36701;51.798;19.474;2022-11-04T11:09:13;97927.69;;;11.74;100.00
50734;BME280;36701;51.798;19.474;2022-11-04T11:11:46;97965.72;;;12.31;100.00
50734;BME280;36701;51.798;19.474;2022-11-04T11:17:15;97967.44;;;12.22;100.00
50734;BME280;36701;51.798;19.474;2022-11-04T11:19:56;97967.06;;;12.33;100.00
50734;BME280;36701;51.798;19.474;2022-11-04T11:22:39;97962.62;;;12.18;100.00
50734;BME280;36701;51.798;19.474;2022-11-04T11:25:21;97969.62;;;12.44;100.00
50734;BME280;36701;51.798;19.474;2022-11-04T11:30:22;97960.47;;;12.40;100.00
50734;BME280;36701;51.798;19.474;2022-11-04T11:33:04;97949.22;;;12.57;100.00
50734;BME280;36701;51.798;19.474;2022-11-04T11:35:35;97909.84;;;12.07;100.00
50734;BME280;36701;51.798;19.474;2022-11-04T11:38:21;97938.66;;;12.12;100.00
50734;BME280;36701;51.798;19.474;2022-11-04T11:40:49;97952.34;;;12.45;100.00
50734;BME280;36701;51.798;19.474;2022-11-04T11:43:29;97940.12;;;12.71;100.00
50734;BME280;36701;51.798;19.474;2022-11-04T11:45:57;97914.22;;;12.27;100.00
50734;BME280;36701;51.798;19.474;2022-11-04T11:48:28;97923.91;;;12.28;100.00
50734;BME280;36701;51.798;19.474;2022-11-04T11:50:56;97935.91;;;12.65;100.00
50734;BME280;36701;51.798;19.474;2022-11-04T11:53:28;97944.75;;;12.47;100.00
50734;BME280;36701;51.798;19.474;2022-11-04T11:56:23;97942.56;;;12.49;100.00
50734;BME280;36701;51.798;19.474;2022-11-04T11:59:22;97944.41;;;12.53;100.00
50734;BME280;36701;51.798;19.474;2022-11-04T12:02:27;97938.47;;;12.95;100.00
50734;BME280;36701;51.798;19.474;2022-11-04T12:04:57;97942.91;;;13.04;100.00
50734;BME280;36701;51.798;19.474;2022-11-04T12:07:49;97944.44;;;12.72;100.00
50734;BME280;36701;51.798;19.474;2022-11-04T12:10:42;97942.19;;;12.80;100.00
50734;BME280;36701;51.798;19.474;2022-11-04T12:13:33;97922.13;;;12.43;100.00
50734;BME280;36701;51.798;19.474;2022-11-04T12:19:20;97889.66;;;12.29;100.00
50734;BME280;36701;51.798;19.474;2022-11-04T12:22:00;97925.22;;;12.55;100.00
50734;BME280;36701;51.798;19.474;2022-11-04T12:25:00;97889.28;;;12.35;100.00
50734;BME280;36701;51.798;19.474;2022-11-04T12:37:34;97937.94;;;12.74;100.00
50734;BME280;36701;51.798;19.474;2022-11-04T12:48:23;97938.88;;;12.40;100.00
50734;BME280;36701;51.798;19.474;2022-11-04T12:56:39;97895.97;;;12.62;100.00
50734;BME280;36701;51.798;19.474;2022-11-04T13:02:01;97896.75;;;13.20;100.00
50734;BME280;36701;51.798;19.474;2022-11-04T13:04:44;97926.91;;;13.27;100.00
50734;BME280;36701;51.798;19.474;2022-11-04T13:07:30;97917.28;;;13.40;100.00
50734;BME280;36701;51.798;19.474;2022-11-04T13:10:04;97906.84;;;13.33;100.00
50734;BME280;36701;51.798;19.474;2022-11-04T13:12:39;97935.78;;;13.14;100.00
50734;BME280;36701;51.798;19.474;2022-11-04T13:15:14;97884.56;;;13.03;100.00
50734;BME280;36701;51.798;19.474;2022-11-04T13:17:42;97921.09;;;13.39;100.00
50734;BME280;36701;51.798;19.474;2022-11-04T13:22:48;97885.69;;;13.02;100.00
50734;BME280;36701;51.798;19.474;2022-11-04T13:25:43;97923.06;;;13.33;100.00
50734;BME280;36701;51.798;19.474;2022-11-04T13:28:14;97909.09;;;13.45;100.00
50734;BME280;36701;51.798;19.474;2022-11-04T13:30:52;97910.97;;;13.44;100.00
50734;BME280;36701;51.798;19.474;2022-11-04T13:36:47;97907.09;;;13.51;100.00
50734;BME280;36701;51.798;19.474;2022-11-04T13:39:25;97879.66;;;13.43;100.00
50734;BME280;36701;51.798;19.474;2022-11-04T13:44:46;97914.41;;;13.31;100.00
50734;BME280;36701;51.798;19.474;2022-11-04T13:47:18;97902.28;;;13.48;100.00
50734;BME280;36701;51.798;19.474;2022-11-04T13:49:49;97887.97;;;13.28;100.00
50734;BME280;36701;51.798;19.474;2022-11-04T13:52:17;97914.22;;;13.47;100.00
50734;BME280;36701;51.798;19.474;2022-11-04T13:54:50;97909.72;;;13.56;100.00
50734;BME280;36701;51.798;19.474;2022-11-04T13:57:27;97911.72;;;13.50;100.00
50734;BME280;36701;51.798;19.474;2022-11-04T14:02:45;97919.78;;;13.69;100.00
50734;BME280;36701;51.798;19.474;2022-11-04T14:08:14;97918.59;;;13.42;100.00
50734;BME280;36701;51.798;19.474;2022-11-04T14:16:10;97914.38;;;13.69;100.00
50734;BME280;36701;51.798;19.474;2022-11-04T14:18:42;97888.16;;;13.51;100.00
50734;BME280;36701;51.798;19.474;2022-11-04T14:21:17;97917.56;;;13.71;100.00
50734;BME280;36701;51.798;19.474;2022-11-04T14:23:59;97921.13;;;13.53;100.00
50734;BME280;36701;51.798;19.474;2022-11-04T14:26:43;97886.09;;;13.09;100.00
50734;BME280;36701;51.798;19.474;2022-11-04T14:31:50;97902.38;;;13.42;100.00
50734;BME280;36701;51.798;19.474;2022-11-04T14:34:32;97938.97;;;13.54;100.00
50734;BME280;36701;51.798;19.474;2022-11-04T14:37:32;97950.66;;;13.30;100.00
50734;BME280;36701;51.798;19.474;2022-11-04T14:40:05;97949.06;;;13.29;100.00
50734;BME280;36701;51.798;19.474;2022-11-04T14:42:53;97945.94;;;13.41;100.00
50734;BME280;36701;51.798;19.474;2022-11-04T14:45:32;97948.25;;;13.48;100.00
50734;BME280;36701;51.798;19.474;2022-11-04T14:48:11;97935.69;;;13.00;100.00
50734;BME280;36701;51.798;19.474;2022-11-04T14:50:42;97940.38;;;12.94;100.00
50734;BME280;36701;51.798;19.474;2022-11-04T14:53:15;97942.13;;;13.04;100.00
50734;BME280;36701;51.798;19.474;2022-11-04T14:55:44;97945.81;;;12.89;100.00
50734;BME280;36701;51.798;19.474;2022-11-04T14:58:23;97950.06;;;12.95;100.00
50734;BME280;36701;51.798;19.474;2022-11-04T15:00:54;97925.84;;;12.90;100.00